Time;durP1;ratioP1;P1;durP2;ratioP2;P2;SDS_P1;SDS_P2;PMS_P1;PMS_P2;Temp;Humidity;BMP_temperature;BMP_pressure;BME280_temperature;BME280_humidity;BME280_pressure;Samples;Min_cycle;Max_cycle;Signal;HPM_P1;HPM_P2
2022/07/29 00:02:18;;;;;;;4.22;1.95;;;;;;;20.92;100.00;101190.92;1674472;85;21706;-81
2022/07/29 00:04:44;;;;;;;3.02;2.08;;;;;;;20.92;100.00;101188.75;1674799;85;21482;-80
2022/07/29 00:07:10;;;;;;;4.25;2.30;;;;;;;20.91;100.00;101190.66;1674892;85;20993;-81
2022/07/29 00:09:36;;;;;;;2.60;2.10;;;;;;;20.89;100.00;101195.66;1674818;85;21165;-81
2022/07/29 00:12:03;;;;;;;3.65;2.17;;;;;;;20.89;100.00;101196.23;1674858;85;21080;-81
2022/07/29 00:14:30;;;;;;;7.25;2.35;;;;;;;20.86;100.00;101196.30;1674840;85;21045;-81
2022/07/29 00:16:56;;;;;;;5.58;2.17;;;;;;;20.86;100.00;101200.41;1674693;85;21105;-81
2022/07/29 00:19:22;;;;;;;6.40;2.30;;;;;;;20.83;100.00;101201.84;1675120;85;21177;-80
2022/07/29 00:21:48;;;;;;;2.65;1.92;;;;;;;20.82;100.00;101200.23;1674784;85;21470;-81
2022/07/29 00:24:14;;;;;;;4.53;2.60;;;;;;;20.83;100.00;101200.47;1674723;85;21056;-81
2022/07/29 00:26:40;;;;;;;2.60;1.92;;;;;;;20.82;100.00;101200.77;1674920;85;21099;-80
2022/07/29 00:29:06;;;;;;;4.08;2.17;;;;;;;20.80;100.00;101199.73;1674797;85;20941;-81
2022/07/29 00:31:32;;;;;;;2.90;2.12;;;;;;;20.74;100.00;101203.72;1743274;81;21035;-81
2022/07/29 00:33:58;;;;;;;4.42;2.50;;;;;;;20.74;100.00;101205.66;1757314;81;21679;-81
2022/07/29 00:36:24;;;;;;;4.87;2.50;;;;;;;20.71;100.00;101200.81;1756915;81;20881;-80
2022/07/29 00:38:51;;;;;;;4.67;2.35;;;;;;;20.69;100.00;101205.78;1756901;80;20972;-80
2022/07/29 00:41:18;;;;;;;4.47;2.30;;;;;;;20.66;100.00;101205.04;1757628;81;21042;-81
2022/07/29 00:43:45;;;;;;;6.95;2.33;;;;;;;20.60;100.00;101198.31;1757154;81;21377;-81
2022/07/29 00:46:11;;;;;;;8.90;2.40;;;;;;;20.58;100.00;101203.28;1757170;81;21067;-81
2022/07/29 00:48:38;;;;;;;5.42;2.50;;;;;;;20.54;100.00;101206.98;1757001;81;21024;-81
2022/07/29 00:51:07;;;;;;;3.95;2.02;;;;;;;20.52;100.00;101212.75;1757214;81;21027;-81
2022/07/29 00:53:34;;;;;;;6.17;2.50;;;;;;;20.52;100.00;101212.75;1756867;81;21677;-81
2022/07/29 00:56:00;;;;;;;6.30;2.30;;;;;;;20.50;100.00;101209.50;1757373;81;20988;-81
2022/07/29 00:58:27;;;;;;;3.60;2.20;;;;;;;20.48;100.00;101213.11;1750481;80;21751;-81
2022/07/29 01:00:53;;;;;;;4.20;1.90;;;;;;;20.47;100.00;101220.25;1743708;81;20992;-80
2022/07/29 01:03:19;;;;;;;7.65;2.22;;;;;;;20.40;100.00;101214.65;1743733;82;21011;-81
2022/07/29 01:05:46;;;;;;;5.08;2.30;;;;;;;20.32;100.00;101218.12;1743625;81;20997;-81
2022/07/29 01:08:14;;;;;;;2.55;2.20;;;;;;;20.22;100.00;101223.85;1743790;81;21004;-81
2022/07/29 01:10:43;;;;;;;7.15;2.85;;;;;;;20.15;100.00;101227.02;1744160;81;21181;-81
2022/07/29 01:13:10;;;;;;;4.95;2.50;;;;;;;20.06;100.00;101226.14;1743892;82;20981;-80
2022/07/29 01:15:47;;;;;;;4.55;2.10;;;;;;;20.02;100.00;101227.05;1743775;82;21516;-81
2022/07/29 01:18:37;;;;;;;5.37;2.30;;;;;;;19.95;100.00;101232.39;1735573;82;21100;-81
2022/07/29 01:21:37;;;;;;;4.47;2.10;;;;;;;19.91;100.00;101225.92;1735794;82;21025;-81
2022/07/29 01:24:20;;;;;;;3.87;2.22;;;;;;;19.87;100.00;101227.64;1732077;82;21102;-80
2022/07/29 01:27:28;;;;;;;4.05;2.15;;;;;;;19.76;100.00;101220.77;1662162;85;21488;-81
2022/07/29 01:29:59;;;;;;;3.47;2.40;;;;;;;19.74;100.00;101222.45;1658849;85;21121;-80
2022/07/29 01:32:33;;;;;;;7.75;2.22;;;;;;;19.76;100.00;101222.12;1612175;88;21051;-81
2022/07/29 01:35:17;;;;;;;3.65;2.20;;;;;;;19.76;100.00;101222.12;1612192;88;21066;-81
2022/07/29 01:37:54;;;;;;;6.12;2.62;;;;;;;19.71;100.00;101220.33;1612173;88;21114;-81
2022/07/29 01:40:31;;;;;;;3.62;2.50;;;;;;;19.66;100.00;101226.46;1608916;88;21022;-80
2022/07/29 01:43:00;;;;;;;3.37;2.25;;;;;;;19.58;100.00;101223.04;1612184;89;21061;-81
2022/07/29 01:45:43;;;;;;;6.17;2.77;;;;;;;19.50;100.00;101221.28;1612121;88;21613;-81
2022/07/29 01:48:23;;;;;;;6.62;2.50;;;;;;;19.44;100.00;101218.94;1612464;88;21027;-81
2022/07/29 01:51:00;;;;;;;3.00;2.10;;;;;;;19.39;100.00;101222.59;1612088;88;21211;-81
2022/07/29 01:53:34;;;;;;;7.65;2.42;;;;;;;19.33;100.00;101228.48;1611924;88;21046;-81
2022/07/29 01:56:01;;;;;;;6.33;2.50;;;;;;;19.29;100.00;101231.81;1529074;93;21115;-81
2022/07/29 01:58:31;;;;;;;2.85;2.30;;;;;;;19.26;100.00;101227.48;1528671;92;21588;-81
2022/07/29 02:01:00;;;;;;;5.20;2.60;;;;;;;19.22;100.00;101226.48;1528976;93;21636;-81
2022/07/29 02:03:28;;;;;;;3.67;2.27;;;;;;;19.18;100.00;101224.92;1541373;91;21861;-80
2022/07/29 02:05:57;;;;;;;5.05;2.47;;;;;;;19.16;100.00;101235.89;1574061;91;22323;-81
2022/07/29 02:10:55;;;;;;;4.65;2.50;;;;;;;19.05;100.00;101232.53;1549495;92;21142;-81
2022/07/29 02:13:24;;;;;;;5.22;2.37;;;;;;;19.00;100.00;101234.81;1549698;92;21554;-81
2022/07/29 02:15:53;;;;;;;4.05;2.60;;;;;;;18.99;100.00;101226.34;1549572;92;21174;-81
2022/07/29 02:18:22;;;;;;;4.75;2.45;;;;;;;18.98;100.00;101232.92;1549548;91;21054;-81
2022/07/29 02:20:52;;;;;;;6.25;2.37;;;;;;;18.97;100.00;101228.59;1549554;92;21078;-81
2022/07/29 02:23:23;;;;;;;7.22;2.60;;;;;;;18.96;100.00;101227.50;1549481;92;21118;-81
2022/07/29 02:25:56;;;;;;;3.47;2.00;;;;;;;18.95;100.00;101234.09;1549641;92;21069;-80
2022/07/29 02:28:26;;;;;;;3.72;2.52;;;;;;;18.94;100.00;101232.45;1552784;91;21339;-81
2022/07/29 02:30:54;;;;;;;6.53;2.80;;;;;;;18.92;100.00;101235.50;1567575;91;20975;-81
2022/07/29 02:33:21;;;;;;;8.13;2.80;;;;;;;18.91;100.00;101236.59;1605690;86;21529;-81
2022/07/29 02:35:48;;;;;;;6.70;3.05;;;;;;;18.92;100.00;101235.50;1653332;86;21040;-81
2022/07/29 02:41:35;;;;;;;7.42;2.70;;;;;;;18.96;100.00;101237.06;1653044;86;21465;-81
2022/07/29 02:44:12;;;;;;;4.15;2.80;;;;;;;18.97;100.00;101229.95;1652729;86;21553;-81
2022/07/29 02:46:43;;;;;;;7.25;2.92;;;;;;;18.96;100.00;101229.67;1653031;86;21096;-81
2022/07/29 02:49:30;;;;;;;5.78;2.50;;;;;;;19.01;100.00;101224.69;1578983;90;21041;-81
2022/07/29 02:52:01;;;;;;;7.92;2.80;;;;;;;19.05;100.00;101230.59;1576400;90;21545;-81
2022/07/29 02:54:55;;;;;;;3.62;2.58;;;;;;;19.09;100.00;101222.63;1557334;91;21170;-81
2022/07/29 02:57:29;;;;;;;6.03;2.50;;;;;;;19.17;100.00;101234.77;1559489;91;21099;-81
2022/07/29 02:59:59;;;;;;;5.75;2.47;;;;;;;19.27;100.00;101235.40;1554162;91;21064;-81
2022/07/29 03:02:27;;;;;;;4.72;2.50;;;;;;;19.37;100.00;101238.48;1555912;92;21107;-81
2022/07/29 03:04:55;;;;;;;5.30;3.02;;;;;;;19.48;100.00;101242.64;1556102;92;21131;-81
2022/07/29 03:07:22;;;;;;;5.53;2.70;;;;;;;19.61;100.00;101243.73;1576862;88;21099;-81
2022/07/29 03:09:50;;;;;;;4.65;2.42;;;;;;;19.73;100.00;101245.42;1622915;88;21115;-81
2022/07/29 03:12:16;;;;;;;5.47;3.05;;;;;;;19.86;100.00;101256.69;1622881;88;20999;-81
2022/07/29 03:14:44;;;;;;;4.80;3.02;;;;;;;19.91;100.00;101253.28;1622807;88;21591;-81
2022/07/29 03:17:11;;;;;;;5.42;3.20;;;;;;;19.95;100.00;101258.95;1622527;88;21106;-82
2022/07/29 03:19:37;;;;;;;7.78;3.08;;;;;;;20.01;100.00;101258.28;1622971;88;21334;-82
2022/07/29 03:22:04;;;;;;;8.35;3.45;;;;;;;20.15;100.00;101262.60;1622869;88;21109;-81
2022/07/29 03:24:36;;;;;;;8.20;2.52;;;;;;;20.30;100.00;101258.70;1622852;88;21193;-82
2022/07/29 03:27:03;;;;;;;3.85;2.65;;;;;;;20.57;100.00;101263.30;1622962;88;21114;-82
2022/07/29 03:29:30;;;;;;;5.35;2.92;;;;;;;20.96;100.00;101259.03;1622962;88;21122;-82
2022/07/29 03:31:56;;;;;;;7.95;2.90;;;;;;;21.39;100.00;101250.83;1623046;88;21074;-82
2022/07/29 03:34:22;;;;;;;4.33;2.67;;;;;;;21.82;100.00;101256.41;1622881;88;21078;-82
2022/07/29 03:36:49;;;;;;;5.50;2.75;;;;;;;22.32;100.00;101256.02;1622992;88;21499;-82
2022/07/29 03:39:21;;;;;;;6.55;2.60;;;;;;;22.94;100.00;101262.25;1622880;88;21194;-83
2022/07/29 03:41:51;;;;;;;6.67;2.80;;;;;;;23.20;100.00;101256.71;1605845;89;21529;-82
2022/07/29 03:44:19;;;;;;;5.58;2.47;;;;;;;23.47;100.00;101257.67;1605592;89;21251;-83
2022/07/29 03:46:49;;;;;;;5.70;2.80;;;;;;;23.65;100.00;101260.30;1648695;86;21075;-83
2022/07/29 03:49:16;;;;;;;2.95;2.33;;;;;;;23.90;100.00;101254.45;1658740;86;21162;-83
2022/07/29 03:51:43;;;;;;;3.85;2.52;;;;;;;24.48;100.00;101255.50;1696635;83;37966;-83
2022/07/29 03:54:10;;;;;;;4.00;2.10;;;;;;;25.30;100.00;101260.34;1716743;83;21064;-83
2022/07/29 03:56:42;;;;;;;3.98;1.72;;;;;;;26.09;100.00;101253.14;1716281;83;21123;-84
2022/07/29 03:59:09;;;;;;;3.77;2.70;;;;;;;26.59;100.00;101258.20;1713864;83;21528;-84
2022/07/29 04:01:36;;;;;;;7.15;2.50;;;;;;;27.04;100.00;101257.61;1711375;83;20996;-82
2022/07/29 04:04:04;;;;;;;4.67;2.08;;;;;;;27.53;100.00;101258.63;1711664;83;21054;-82
2022/07/29 04:06:40;;;;;;;5.95;2.10;;;;;;;28.11;100.00;101261.56;1711281;83;21066;-82
2022/07/29 04:09:07;;;;;;;5.25;2.25;;;;;;;28.58;100.00;101258.39;1709395;83;21108;-83
2022/07/29 04:11:33;;;;;;;4.97;2.10;;;;;;;28.70;98.58;101265.16;1687572;83;21063;-82
2022/07/29 04:13:59;;;;;;;3.08;2.17;;;;;;;28.81;94.51;101263.39;1711609;83;21583;-83
2022/07/29 04:16:26;;;;;;;4.83;2.25;;;;;;;28.92;90.69;101261.62;1711759;83;21007;-83
2022/07/29 04:18:51;;;;;;;5.37;2.40;;;;;;;28.91;86.62;101261.38;1711461;83;21105;-83
2022/07/29 04:21:17;;;;;;;5.35;2.50;;;;;;;29.06;85.33;101268.05;1711230;83;21835;-83
2022/07/29 04:23:48;;;;;;;4.08;2.15;;;;;;;29.31;84.11;101271.23;1711610;83;20979;-82
2022/07/29 04:26:11;;;;;;;8.25;2.05;;;;;;;29.81;82.08;101276.20;1682472;83;21050;-83
2022/07/29 04:28:39;;;;;;;3.83;2.22;;;;;;;30.39;77.48;101270.05;1711767;83;21661;-82
2022/07/29 04:31:07;;;;;;;8.00;2.47;;;;;;;30.64;75.42;101268.34;1711166;83;21488;-84
2022/07/29 04:33:33;;;;;;;3.58;2.47;;;;;;;30.88;72.83;101260.66;1649757;87;21761;-84
2022/07/29 04:35:59;;;;;;;3.00;2.20;;;;;;;31.24;71.34;101267.37;1645657;87;20916;-83
2022/07/29 04:38:25;;;;;;;3.75;2.33;;;;;;;31.55;66.77;101270.81;1652940;86;21135;-85
2022/07/29 04:40:51;;;;;;;3.50;2.62;;;;;;;31.04;62.88;101266.00;1659423;86;21063;-82
2022/07/29 04:43:17;;;;;;;5.45;2.02;;;;;;;30.73;62.75;101271.61;1659339;86;21070;-84
2022/07/29 04:45:45;;;;;;;4.87;2.27;;;;;;;30.73;63.09;101273.60;1659046;86;21062;-84
2022/07/29 04:48:11;;;;;;;2.67;2.30;;;;;;;30.95;63.00;101271.88;1589204;89;21056;-85
2022/07/29 04:50:41;;;;;;;3.17;2.40;;;;;;;31.40;61.56;101262.34;1586775;89;21053;-84
2022/07/29 04:53:10;;;;;;;6.47;2.77;;;;;;;31.53;59.20;101261.42;1580813;89;22129;-83
2022/07/29 04:55:36;;;;;;;4.75;2.30;;;;;;;31.37;57.89;101267.30;1562690;91;21122;-84
2022/07/29 04:58:02;;;;;;;6.08;2.70;;;;;;;31.62;56.98;101267.48;1562089;91;21966;-84
2022/07/29 05:00:28;;;;;;;8.25;2.58;;;;;;;31.91;56.32;101266.27;1550364;91;21184;-83
2022/07/29 05:02:54;;;;;;;5.00;2.72;;;;;;;32.08;55.16;101273.14;1571337;91;21141;-84
2022/07/29 05:05:21;;;;;;;3.72;2.30;;;;;;;32.15;54.82;101276.55;1571350;91;20962;-85
2022/07/29 05:07:47;;;;;;;4.42;2.52;;;;;;;32.46;53.87;101266.15;1571359;91;21100;-85
2022/07/29 05:10:16;;;;;;;2.75;2.20;;;;;;;32.66;52.29;101272.80;1571234;91;21121;-84
2022/07/29 05:12:42;;;;;;;6.05;2.52;;;;;;;33.01;52.21;101273.48;1571171;91;21096;-84
2022/07/29 05:15:09;;;;;;;3.92;2.35;;;;;;;33.38;49.84;101269.48;1571582;91;21105;-84
2022/07/29 05:17:35;;;;;;;2.98;2.47;;;;;;;33.15;49.61;101272.67;1571176;91;20999;-84
2022/07/29 05:20:02;;;;;;;5.72;2.40;;;;;;;33.58;49.60;101272.69;1550995;91;21041;-84
2022/07/29 05:22:30;;;;;;;3.98;2.30;;;;;;;34.08;46.88;101270.58;1551249;91;21369;-85
2022/07/29 05:24:56;;;;;;;5.15;2.45;;;;;;;33.89;46.95;101278.81;1551582;91;20975;-86
2022/07/29 05:27:22;;;;;;;4.33;2.40;;;;;;;34.18;46.47;101268.97;1571630;91;21230;-85
2022/07/29 05:29:48;;;;;;;6.08;2.40;;;;;;;34.26;45.45;101277.50;1535875;91;21584;-85
2022/07/29 05:32:15;;;;;;;5.03;2.50;;;;;;;34.50;45.38;101281.98;1567739;91;21082;-86
2022/07/29 05:34:41;;;;;;;3.55;2.40;;;;;;;34.59;44.40;101280.38;1567455;91;21578;-84
2022/07/29 05:37:13;;;;;;;2.42;2.22;;;;;;;34.56;43.06;101277.00;1567745;91;21112;-90
2022/07/29 05:39:40;;;;;;;5.10;2.40;;;;;;;34.10;44.29;101277.19;1567804;91;21101;-90
2022/07/29 05:42:11;;;;;;;3.37;2.47;;;;;;;34.55;44.33;101275.39;1567503;91;21167;-94
2022/07/29 05:44:39;;;;;;;4.85;2.52;;;;;;;35.03;44.19;101278.06;1567603;91;21668;-89
2022/07/29 05:47:06;;;;;;;3.15;2.35;;;;;;;35.31;42.42;101278.48;1567597;90;22031;-93
2022/07/29 05:49:33;;;;;;;3.27;2.40;;;;;;;35.80;42.61;101281.22;1567593;91;21227;-89
2022/07/29 05:51:59;;;;;;;9.90;4.20;;;;;;;36.00;40.79;101268.17;1631065;84;21567;-89
2022/07/29 05:54:25;;;;;;;10.98;2.25;;;;;;;35.52;40.27;101282.30;1731087;81;20951;-89
2022/07/29 05:56:51;;;;;;;3.92;2.45;;;;;;;35.52;40.27;101282.30;1757510;81;21129;-88
2022/07/29 05:59:17;;;;;;;3.90;2.08;;;;;;;35.51;40.71;101278.70;1756712;81;21124;-88
2022/07/29 06:01:43;;;;;;;4.00;2.22;;;;;;;35.75;40.55;101278.90;1754507;81;21026;-90
2022/07/29 06:04:10;;;;;;;7.60;2.77;;;;;;;36.28;39.05;101274.69;1754756;80;20994;-89
2022/07/29 06:06:36;;;;;;;3.55;2.10;;;;;;;36.15;38.30;101269.64;1752199;81;20991;-90
2022/07/29 06:09:02;;;;;;;2.47;2.02;;;;;;;36.27;38.82;101272.49;1754602;81;21594;-88
2022/07/29 06:11:29;;;;;;;3.00;2.20;;;;;;;36.57;38.06;101273.72;1726755;81;20996;-90
2022/07/29 06:13:55;;;;;;;7.53;2.30;;;;;;;37.05;36.53;101274.01;1754594;81;21034;-87
2022/07/29 06:16:21;;;;;;;3.95;2.67;;;;;;;36.47;35.96;101271.81;1754631;81;21507;-86
2022/07/29 06:18:47;;;;;;;2.47;2.27;;;;;;;36.29;36.08;101271.45;1754331;81;21739;-87
2022/07/29 06:21:13;;;;;;;3.35;2.62;;;;;;;36.33;36.40;101267.20;1754911;81;20974;-85
2022/07/29 06:23:40;;;;;;;7.55;2.30;;;;;;;36.07;36.35;101266.72;1754620;81;21043;-88
2022/07/29 06:26:06;;;;;;;4.05;2.10;;;;;;;35.81;36.91;101261.80;1754859;81;20960;-87
2022/07/29 06:28:33;;;;;;;2.85;2.58;;;;;;;35.98;36.29;101270.62;1754413;81;21487;-90
2022/07/29 06:30:59;;;;;;;6.55;2.10;;;;;;;36.11;36.79;101272.28;1754389;81;20975;-87
2022/07/29 06:33:25;;;;;;;12.60;2.80;;;;;;;36.19;35.82;101265.98;1754788;81;21353;-90
2022/07/29 06:35:51;;;;;;;4.25;2.17;;;;;;;36.21;35.63;101264.94;1754655;81;20910;-86
2022/07/29 06:38:17;;;;;;;3.30;2.30;;;;;;;35.99;35.56;101272.81;1754690;81;21098;-90
2022/07/29 06:40:59;;;;;;;4.30;2.20;;;;;;;36.01;35.67;101269.78;1754550;81;21050;-89
2022/07/29 06:43:38;;;;;;;4.00;1.95;;;;;;;36.05;34.57;101274.76;1754204;81;21018;-89
2022/07/29 06:46:08;;;;;;;5.12;2.10;;;;;;;36.24;34.78;101271.93;1720926;83;21075;-86
2022/07/29 06:51:05;;;;;;;4.72;2.40;;;;;;;36.20;34.81;101264.76;1711147;83;21123;-88
2022/07/29 06:53:31;;;;;;;2.45;2.00;;;;;;;36.49;34.90;101265.97;1711513;83;21552;-90
2022/07/29 06:55:59;;;;;;;2.22;1.95;;;;;;;37.13;34.37;101261.43;1711641;83;21048;-90
2022/07/29 06:58:26;;;;;;;2.55;2.08;;;;;;;37.63;33.21;101261.17;1711569;83;21068;-90
2022/07/29 07:00:52;;;;;;;5.70;2.10;;;;;;;37.37;32.65;101260.80;1708862;83;22177;-90
2022/07/29 07:03:24;;;;;;;5.97;2.33;;;;;;;37.56;32.18;101259.27;1708690;84;21204;-89
2022/07/29 07:05:50;;;;;;;;;;;;;;;38.21;31.84;101267.86;1653787;86;21608;-87
2022/07/29 07:08:19;;;;;;;5.08;2.20;;;;;;;38.21;30.13;101264.45;1651070;86;20316;-88
2022/07/29 07:10:45;;;;;;;6.62;2.35;;;;;;;38.18;31.53;101262.48;1588924;90;21257;-91
2022/07/29 07:13:11;;;;;;;5.47;2.20;;;;;;;38.82;30.65;101260.26;1588976;90;21942;-87
2022/07/29 07:15:39;;;;;;;4.80;2.40;;;;;;;39.35;30.38;101263.80;1589135;90;21101;-91
2022/07/29 07:18:06;;;;;;;2.77;2.33;;;;;;;39.53;30.05;101253.45;1588933;90;21228;-88
2022/07/29 07:20:34;;;;;;;26.17;2.98;;;;;;;40.33;28.84;101252.80;1588988;90;21096;-89
2022/07/29 07:23:00;;;;;;;3.87;2.15;;;;;;;40.17;27.81;101246.61;1596350;89;21192;-87
2022/07/29 07:25:26;;;;;;;2.80;2.30;;;;;;;39.88;27.54;101248.86;1610941;89;21298;-88
2022/07/29 07:27:52;;;;;;;7.87;2.08;;;;;;;39.88;27.50;101250.89;1610833;89;20975;-90
2022/07/29 07:30:18;;;;;;;4.80;2.10;;;;;;;39.47;27.48;101258.84;1610880;89;21139;-88
2022/07/29 07:32:44;;;;;;;2.05;1.95;;;;;;;39.10;27.29;101253.78;1610821;89;21115;-90
2022/07/29 07:35:11;;;;;;;2.10;1.90;;;;;;;38.69;27.85;101262.98;1610918;89;21034;-88
2022/07/29 07:37:38;;;;;;;2.37;2.05;;;;;;;38.91;27.51;101266.72;1610912;89;21163;-88
2022/07/29 07:40:05;;;;;;;4.62;1.90;;;;;;;38.79;27.51;101266.77;1611038;89;21073;-89
2022/07/29 07:42:33;;;;;;;2.27;2.08;;;;;;;39.01;27.86;101262.23;1610835;89;21031;-88
2022/07/29 07:45:02;;;;;;;4.60;2.00;;;;;;;39.27;27.11;101256.77;1529288;93;21074;-87
2022/07/29 07:47:28;;;;;;;2.62;1.82;;;;;;;39.17;26.92;101256.41;1525179;93;21090;-87
2022/07/29 07:49:54;;;;;;;1.80;1.70;;;;;;;39.25;27.22;101257.19;1468239;97;22182;-89
2022/07/29 07:52:21;;;;;;;2.90;1.90;;;;;;;39.04;26.77;101258.53;1468422;96;20935;-87
2022/07/29 07:54:48;;;;;;;3.17;2.00;;;;;;;38.95;27.00;101264.00;1449922;97;21130;-90
2022/07/29 07:57:16;;;;;;;2.10;1.90;;;;;;;39.16;26.87;101263.30;1468609;97;21103;-89
2022/07/29 07:59:46;;;;;;;2.20;1.72;;;;;;;39.37;26.30;101261.97;1452425;98;21101;-88
2022/07/29 08:02:13;;;;;;;3.50;2.02;;;;;;;39.09;26.02;101260.02;1457871;97;21628;-87
2022/07/29 08:07:54;;;;;;;;;;;;;;;;;;;;;
2022/07/29 08:10:51;;;;;;;4.65;1.77;;;;;;;39.46;26.67;101256.48;1399779;101;21168;-90
2022/07/29 08:12:43;;;;;;;6.42;2.02;;;;;;;39.87;26.48;101252.92;1402343;100;21613;-89
2022/07/29 08:15:09;;;;;;;1.92;1.77;;;;;;;40.52;25.70;101254.63;1434088;99;21171;-90
2022/07/29 08:17:36;;;;;;;7.20;1.90;;;;;;;40.49;25.04;101255.53;1445338;97;21144;-88
2022/07/29 08:20:02;;;;;;;3.30;1.60;;;;;;;40.22;25.56;101247.50;1445474;99;21085;-88
2022/07/29 08:22:31;;;;;;;3.77;1.90;;;;;;;40.61;25.12;101256.17;1445477;99;21593;-88
2022/07/29 08:24:58;;;;;;;5.20;1.75;;;;;;;40.36;24.31;101254.75;1445554;99;21708;-88
2022/07/29 08:27:26;;;;;;;19.12;2.30;;;;;;;39.36;24.82;101254.13;1445600;99;21876;-90
2022/07/29 08:29:52;;;;;;;3.40;2.15;;;;;;;38.84;25.51;101258.59;1445451;99;21152;-86
2022/07/29 08:32:18;;;;;;;2.62;1.62;;;;;;;38.73;26.06;101258.05;1445647;99;21058;-88
2022/07/29 08:34:45;;;;;;;3.33;1.50;;;;;;;39.09;26.26;101254.37;1445626;99;21050;-87
2022/07/29 08:37:12;;;;;;;4.55;1.95;;;;;;;39.04;26.29;101254.93;1445440;99;21100;-88
2022/07/29 08:39:38;;;;;;;2.52;1.62;;;;;;;39.19;25.87;101256.77;1445765;99;21433;-89
2022/07/29 08:42:06;;;;;;;2.58;1.50;;;;;;;38.84;26.03;101258.59;1477790;95;21074;-91
2022/07/29 08:44:33;;;;;;;4.37;1.50;;;;;;;39.10;25.59;101252.38;1525436;91;21058;-89
2022/07/29 08:46:59;;;;;;;3.35;1.80;;;;;;;39.14;25.11;101260.11;1574852;91;21091;-89
2022/07/29 08:49:25;;;;;;;1.70;1.60;;;;;;;39.36;25.81;101264.00;1574841;91;21131;-87
2022/07/29 08:51:53;;;;;;;1.80;1.70;;;;;;;39.51;24.81;101260.17;1574799;91;21044;-88
2022/07/29 08:54:27;;;;;;;2.90;1.40;;;;;;;39.40;24.87;101261.08;1574248;91;21089;-88
2022/07/29 08:56:57;;;;;;;2.55;1.90;;;;;;;39.71;25.36;101255.17;1590479;89;21094;-87
2022/07/29 08:59:26;;;;;;;2.17;1.55;;;;;;;39.70;24.46;101255.61;1601980;87;21006;-89
2022/07/29 09:01:54;;;;;;;9.98;2.25;;;;;;;39.32;24.76;101257.64;1606757;89;21110;-86
2022/07/29 09:04:21;;;;;;;1.80;1.47;;;;;;;39.24;25.13;101257.02;1687563;82;21098;-87
2022/07/29 09:06:51;;;;;;;2.05;1.67;;;;;;;39.55;25.39;101255.84;1736950;82;20979;-87
2022/07/29 09:09:17;;;;;;;3.87;1.60;;;;;;;39.28;24.57;101256.30;1736582;82;21003;-88
2022/07/29 09:11:44;;;;;;;3.47;1.60;;;;;;;39.02;25.34;101254.56;1736819;82;20991;-87
2022/07/29 09:14:13;;;;;;;2.70;1.72;;;;;;;39.28;25.28;101252.08;1736859;82;21155;-87
2022/07/29 09:16:49;;;;;;;2.35;1.60;;;;;;;39.14;24.13;101255.26;1736603;82;21125;-90
2022/07/29 09:19:31;;;;;;;1.87;1.52;;;;;;;39.32;25.05;101249.18;1736595;82;21062;-88
2022/07/29 09:21:58;;;;;;;;;;;;;;;39.54;24.56;101251.45;1739349;82;21078;-89
2022/07/29 09:24:39;;;;;;;2.58;1.70;;;;;;;39.87;24.50;101247.28;1736952;82;20127;-90
2022/07/29 09:27:13;;;;;;;2.35;1.40;;;;;;;40.26;24.39;101250.99;1689858;84;21055;-89
2022/07/29 09:29:39;;;;;;;1.77;1.52;;;;;;;39.73;24.16;101256.12;1689823;84;21343;-88
2022/07/29 09:32:10;;;;;;;5.12;1.72;;;;;;;40.05;24.72;101255.86;1685887;84;21398;-89
2022/07/29 09:34:37;;;;;;;3.57;1.30;;;;;;;40.10;23.33;101253.89;1593028;90;21099;-88
2022/07/29 09:37:05;;;;;;;6.75;1.60;;;;;;;38.87;24.09;101261.18;1572315;90;21031;-86
2022/07/29 09:39:43;;;;;;;2.95;1.37;;;;;;;38.62;24.37;101252.69;1592913;90;21067;-90
2022/07/29 09:42:07;;;;;;;1.67;1.00;;;;;;;38.09;24.94;101253.83;1592708;88;21231;-87
2022/07/29 09:44:48;;;;;;;5.08;1.60;;;;;;;38.17;24.87;101256.06;1572014;90;20979;-85
2022/07/29 09:47:17;;;;;;;4.75;1.57;;;;;;;38.42;24.13;101248.31;1593050;90;26291;-87
2022/07/29 09:50:00;;;;;;;5.45;1.47;;;;;;;38.35;24.69;101246.44;1592756;90;21066;-86
2022/07/29 09:52:27;;;;;;;1.62;1.30;;;;;;;37.90;25.58;101249.16;1592845;90;21090;-86
2022/07/29 09:55:08;;;;;;;2.15;1.45;;;;;;;37.53;25.67;101241.06;1592983;90;22168;-87
2022/07/29 09:57:34;;;;;;;5.75;1.80;;;;;;;36.86;26.26;101239.55;1592786;90;21052;-87
2022/07/29 10:00:12;;;;;;;3.33;1.62;;;;;;;35.75;27.88;101243.22;1595699;89;21556;-86
2022/07/29 10:02:40;;;;;;;3.08;1.57;;;;;;;35.56;27.70;101240.41;1576689;91;21535;-89
2022/07/29 10:05:18;;;;;;;2.55;1.40;;;;;;;35.40;28.49;101237.35;1587285;89;21106;-85
2022/07/29 10:07:48;;;;;;;4.10;1.50;;;;;;;35.61;28.64;101232.95;1511122;94;21163;-87
2022/07/29 10:10:27;;;;;;;5.15;1.57;;;;;;;35.43;28.54;101239.33;1491744;95;21250;-88
2022/07/29 10:13:00;;;;;;;6.35;2.10;;;;;;;35.23;28.99;101244.10;1444621;98;21058;-86
2022/07/29 10:15:30;;;;;;;2.45;1.52;;;;;;;35.14;29.53;101242.39;1419174;101;21118;-86
2022/07/29 10:17:57;;;;;;;4.28;1.70;;;;;;;35.19;29.64;101223.73;1418992;100;21098;-85
2022/07/29 10:20:25;;;;;;;3.10;1.47;;;;;;;35.39;29.34;101245.59;1418992;101;21235;-86
2022/07/29 10:22:52;;;;;;;3.30;1.70;;;;;;;34.99;29.21;101239.48;1419165;101;21059;-86
2022/07/29 10:25:20;;;;;;;1.90;1.47;;;;;;;34.36;29.80;101243.08;1419158;101;21102;-87
2022/07/29 10:27:47;;;;;;;3.27;1.70;;;;;;;33.66;30.91;101247.72;1419293;99;21136;-85
2022/07/29 10:30:16;;;;;;;2.55;1.35;;;;;;;33.66;31.40;101247.11;1418924;101;21118;-87
2022/07/29 10:33:17;;;;;;;5.45;1.65;;;;;;;33.91;31.28;101249.03;1418955;101;21349;-87
2022/07/29 10:36:33;;;;;;;3.83;1.42;;;;;;;33.98;32.35;101249.02;1419113;101;21584;-85
2022/07/29 10:39:44;;;;;;;1.87;1.40;;;;;;;34.11;31.71;101242.40;1438790;99;21152;-88
2022/07/29 10:42:26;;;;;;;6.03;1.37;;;;;;;34.43;30.80;101235.84;1441114;99;21088;-87
2022/07/29 10:44:53;;;;;;;3.95;1.50;;;;;;;34.63;30.41;101240.36;1405094;101;21167;-86
2022/07/29 10:47:27;;;;;;;5.83;1.40;;;;;;;34.74;30.26;101231.27;1393698;103;21231;-87
2022/07/29 10:50:03;;;;;;;8.68;1.30;;;;;;;34.33;30.71;101234.11;1404909;100;21127;-87
2022/07/29 10:52:53;;;;;;;6.12;1.30;;;;;;;34.12;30.73;101236.98;1434727;98;21649;-86
2022/07/29 10:55:42;;;;;;;4.85;1.55;;;;;;;34.27;31.46;101233.52;1412138;100;21139;-86
2022/07/29 10:58:19;;;;;;;5.95;1.40;;;;;;;34.06;31.22;101245.03;1420914;101;21132;-87
2022/07/29 11:00:50;;;;;;;4.10;1.60;;;;;;;33.87;31.55;101232.27;1436386;99;22227;-87
2022/07/29 11:03:44;;;;;;;5.20;1.50;;;;;;;34.12;31.79;101229.99;1436747;99;21021;-85
2022/07/29 11:06:10;;;;;;;2.92;1.30;;;;;;;34.49;31.18;101232.81;1463631;97;21258;-86
2022/07/29 11:08:37;;;;;;;7.45;1.90;;;;;;;34.18;31.10;101230.37;1445810;98;21173;-87
2022/07/29 11:11:29;;;;;;;2.45;1.30;;;;;;;33.94;31.95;101224.45;1458802;97;21092;-85
2022/07/29 11:13:55;;;;;;;7.10;2.00;;;;;;;33.92;31.56;101226.27;1413273;101;22032;-86
2022/07/29 11:16:22;;;;;;;7.78;1.40;;;;;;;33.51;31.72;101227.95;1457552;98;21114;-85
2022/07/29 11:19:20;;;;;;;3.30;1.30;;;;;;;33.54;31.54;101230.77;1457578;97;21110;-88
2022/07/29 11:21:49;;;;;;;2.35;1.00;;;;;;;33.19;32.01;101236.56;1457711;98;21138;-87
2022/07/29 11:24:23;;;;;;;2.00;1.40;;;;;;;33.13;31.54;101230.39;1457461;98;21191;-85
2022/07/29 11:27:16;;;;;;;5.00;1.45;;;;;;;32.74;31.66;101221.37;1457533;98;21174;-86
2022/07/29 11:30:00;;;;;;;5.90;1.25;;;;;;;32.87;32.01;101222.56;1457830;98;21079;-86
2022/07/29 11:32:29;;;;;;;5.08;1.47;;;;;;;32.76;31.74;101228.12;1479275;95;21116;-88
2022/07/29 11:35:21;;;;;;;6.47;1.10;;;;;;;32.60;31.94;101231.11;1497062;95;21098;-86
2022/07/29 11:38:25;;;;;;;3.37;1.17;;;;;;;32.41;31.96;101226.63;1506124;95;21047;-86
2022/07/29 11:41:24;;;;;;;3.98;1.42;;;;;;;32.29;31.89;101220.82;1553548;92;21145;-85
2022/07/29 11:43:57;;;;;;;3.80;1.20;;;;;;;32.39;32.30;101224.86;1553822;91;21465;-85
2022/07/29 11:46:51;;;;;;;2.80;1.27;;;;;;;32.55;32.06;101230.89;1553630;92;21231;-84
2022/07/29 11:49:22;;;;;;;3.65;1.37;;;;;;;32.51;32.46;101223.91;1553432;91;21083;-85
2022/07/29 11:51:56;;;;;;;2.10;1.02;;;;;;;32.43;31.91;101220.08;1553683;92;21024;-87